createdAt,value
2018-09-25T07:53:11.770Z,8.80
2018-09-25T07:55:45.643Z,8.90
2018-09-25T07:58:19.518Z,9.20
2018-09-25T08:00:53.312Z,9.40
2018-09-25T08:03:27.408Z,9.60
2018-09-25T08:06:01.093Z,9.60
2018-09-25T08:08:34.902Z,9.70
2018-09-25T08:11:08.533Z,9.80
2018-09-25T08:13:42.704Z,9.90
2018-09-25T08:16:16.445Z,9.80
2018-09-25T08:18:50.162Z,9.70
2018-09-25T08:21:23.785Z,9.80
2018-09-25T08:23:58.533Z,9.90
2018-09-25T08:26:32.161Z,10.00
2018-09-25T08:29:05.826Z,10.10
2018-09-25T08:31:39.585Z,10.10
2018-09-25T08:34:13.429Z,10.20
2018-09-25T08:36:47.102Z,10.30
2018-09-25T08:39:20.839Z,10.60
2018-09-25T08:41:54.408Z,10.80
2018-09-25T08:44:27.840Z,11.00
2018-09-25T08:47:01.415Z,11.10
2018-09-25T08:49:35.134Z,11.10
2018-09-25T08:52:08.721Z,11.20
2018-09-25T08:54:42.521Z,11.30
2018-09-25T08:57:16.269Z,11.00
2018-09-25T08:59:49.773Z,11.10
2018-09-25T09:02:23.277Z,11.10
2018-09-25T09:04:58.521Z,11.00
2018-09-25T09:07:32.000Z,10.90
2018-09-25T09:10:05.758Z,10.90
2018-09-25T09:12:39.312Z,9.00
2018-09-25T09:15:13.499Z,11.00
2018-09-25T09:17:47.132Z,10.90
2018-09-25T09:20:20.837Z,10.90
2018-09-25T09:22:54.329Z,10.90
2018-09-25T09:25:28.363Z,10.80
2018-09-25T09:28:02.108Z,10.80
2018-09-25T09:30:35.846Z,10.80
2018-09-25T09:33:09.617Z,11.00
2018-09-25T09:35:44.288Z,11.00
2018-09-25T09:38:17.954Z,11.20
2018-09-25T09:40:53.022Z,11.20
2018-09-25T09:43:26.430Z,11.20
2018-09-25T09:46:01.428Z,11.20
2018-09-25T09:48:35.131Z,11.20
2018-09-25T09:51:08.722Z,11.30
2018-09-25T09:53:42.403Z,11.40
2018-09-25T09:56:16.846Z,11.40
2018-09-25T09:58:50.378Z,11.30
2018-09-25T10:01:24.166Z,11.30
2018-09-25T10:03:57.983Z,11.30
2018-09-25T10:06:32.403Z,11.40
2018-09-25T10:09:06.100Z,11.50
2018-09-25T10:11:39.767Z,11.60
2018-09-25T10:14:14.528Z,11.70
2018-09-25T10:16:48.369Z,11.60
2018-09-25T10:19:21.999Z,11.70
2018-09-25T10:21:55.743Z,11.80
2018-09-25T10:24:29.127Z,11.90
2018-09-25T10:27:03.368Z,12.10
2018-09-25T10:29:37.111Z,12.20
2018-09-25T10:32:10.769Z,12.30
2018-09-25T10:34:44.484Z,12.50
2018-09-25T10:37:18.918Z,12.60
2018-09-25T10:39:52.699Z,12.60
2018-09-25T10:42:26.152Z,12.70
2018-09-25T10:45:00.613Z,12.50
2018-09-25T10:47:34.673Z,12.50
2018-09-25T10:50:08.428Z,12.60
2018-09-25T10:52:42.091Z,12.70
2018-09-25T10:55:15.778Z,12.70
2018-09-25T10:57:50.289Z,12.60
2018-09-25T11:00:23.796Z,12.50
2018-09-25T11:02:57.714Z,12.40
2018-09-25T11:05:31.588Z,12.60
2018-09-25T11:08:06.238Z,12.60
2018-09-25T11:10:40.043Z,12.80
2018-09-25T11:13:13.541Z,13.00
2018-09-25T11:15:47.053Z,13.00
2018-09-25T11:18:21.062Z,13.10
2018-09-25T11:20:54.841Z,13.40
2018-09-25T11:25:24.073Z,13.50
2018-09-25T11:27:57.693Z,13.70
2018-09-25T11:30:31.585Z,14.00
2018-09-25T11:33:05.901Z,14.00
2018-09-25T11:35:39.620Z,14.10
2018-09-25T11:38:13.376Z,14.40
2018-09-25T11:40:47.117Z,14.20
2018-09-25T11:43:20.974Z,14.00
2018-09-25T11:45:54.688Z,14.00
2018-09-25T11:48:28.332Z,14.00
2018-09-25T11:51:02.023Z,13.90
2018-09-25T11:53:36.317Z,13.70
2018-09-25T11:56:09.939Z,13.40
2018-09-25T11:58:43.630Z,13.20
2018-09-25T12:01:17.345Z,13.10
2018-09-25T12:03:51.778Z,12.70
2018-09-25T12:06:25.458Z,12.20
2018-09-25T12:08:59.084Z,11.90
2018-09-25T12:11:32.741Z,11.80
2018-09-25T12:14:07.069Z,12.00
2018-09-25T12:16:40.800Z,12.30
2018-09-25T12:19:14.386Z,12.80
2018-09-25T12:21:48.029Z,12.80
2018-09-25T12:24:22.514Z,13.00
2018-09-25T12:26:56.133Z,13.10
2018-09-25T12:29:29.756Z,13.10
2018-09-25T12:32:03.563Z,13.20
2018-09-25T12:34:38.086Z,13.30
2018-09-25T12:37:12.015Z,13.10
2018-09-25T12:39:45.683Z,13.20
2018-09-25T12:42:19.132Z,13.10
2018-09-25T12:46:17.796Z,13.00
2018-09-25T12:48:51.497Z,13.10
2018-09-25T12:51:25.214Z,13.40
2018-09-25T12:53:58.826Z,13.40
2018-09-25T12:56:32.634Z,13.40
2018-09-25T12:59:06.365Z,13.50
2018-09-25T13:01:40.036Z,13.50
2018-09-25T13:04:14.528Z,13.50
2018-09-25T13:06:48.173Z,13.40
2018-09-25T13:09:21.861Z,13.40
2018-09-25T13:11:55.365Z,13.50
2018-09-25T13:14:30.140Z,13.40
2018-09-25T13:17:03.782Z,13.30
2018-09-25T13:19:37.364Z,13.30
2018-09-25T13:22:11.006Z,13.40
2018-09-25T13:24:45.644Z,13.60
2018-09-25T13:27:19.326Z,13.60
2018-09-25T13:29:53.094Z,13.60
2018-09-25T13:32:26.803Z,13.40
2018-09-25T13:35:00.457Z,13.20
2018-09-25T13:37:34.140Z,13.20
2018-09-25T13:40:07.569Z,13.20
2018-09-25T13:42:41.081Z,13.20
2018-09-25T13:45:15.026Z,13.30
2018-09-25T13:47:48.829Z,13.30
2018-09-25T13:50:22.227Z,13.50
2018-09-25T13:52:55.925Z,13.40
2018-09-25T13:55:30.594Z,13.20
2018-09-25T13:58:04.237Z,13.10
2018-09-25T14:00:37.973Z,13.00
2018-09-25T14:03:11.408Z,13.00
2018-09-25T14:05:45.993Z,13.00
2018-09-25T14:08:19.551Z,13.10
2018-09-25T14:10:53.017Z,13.10
2018-09-25T14:13:26.644Z,13.10
2018-09-25T14:16:01.925Z,12.90
2018-09-25T14:18:35.472Z,12.70
2018-09-25T14:21:08.972Z,12.70
2018-09-25T14:23:42.670Z,12.80
2018-09-25T14:26:16.575Z,12.80
2018-09-25T14:28:50.932Z,12.90
2018-09-25T14:31:25.205Z,12.90
2018-09-25T14:33:58.785Z,13.00
2018-09-25T14:36:33.333Z,13.10
2018-09-25T14:39:07.037Z,12.90
2018-09-25T14:41:40.827Z,12.90
2018-09-25T14:44:14.539Z,12.80
2018-09-25T14:46:48.856Z,12.70
2018-09-25T14:49:22.532Z,12.70
2018-09-25T14:51:56.092Z,12.70
2018-09-25T14:54:29.766Z,12.60
2018-09-25T14:57:04.077Z,12.50
2018-09-25T14:59:37.759Z,12.50
2018-09-25T15:02:11.428Z,12.50
2018-09-25T15:04:44.802Z,12.40
2018-09-25T15:07:19.456Z,12.40
2018-09-25T15:09:53.003Z,12.40
2018-09-25T15:12:26.737Z,12.30
2018-09-25T15:15:00.500Z,12.30
2018-09-25T15:17:34.680Z,12.30
2018-09-25T15:20:08.340Z,12.30
2018-09-25T15:22:41.817Z,12.20
2018-09-25T15:25:15.260Z,12.10
2018-09-25T15:27:49.493Z,12.10
2018-09-25T15:30:23.007Z,12.00
2018-09-25T15:32:56.744Z,11.90
2018-09-25T15:35:30.568Z,11.90
2018-09-25T15:38:05.063Z,11.80
2018-09-25T15:40:38.832Z,11.60
2018-09-25T15:43:12.621Z,11.60
2018-09-25T15:45:46.149Z,11.60
2018-09-25T15:48:20.757Z,11.50
2018-09-25T15:50:54.395Z,11.50
2018-09-25T15:53:28.084Z,11.40
2018-09-25T15:56:01.791Z,11.50
2018-09-25T15:58:35.405Z,11.30
2018-09-25T16:01:08.987Z,11.20
2018-09-25T16:03:42.741Z,11.00
2018-09-25T16:06:16.462Z,11.10
2018-09-25T16:08:50.758Z,11.10
2018-09-25T16:11:24.461Z,11.10
2018-09-25T16:13:58.018Z,11.00
2018-09-25T16:16:31.660Z,10.90
2018-09-25T16:19:06.210Z,10.80
2018-09-25T16:21:39.866Z,10.80
2018-09-25T16:24:13.524Z,10.70
2018-09-25T16:26:47.073Z,10.60
2018-09-25T16:29:24.756Z,10.60
2018-09-25T16:31:58.373Z,10.50
2018-09-25T16:34:32.091Z,10.40
2018-09-25T16:37:05.749Z,10.20
2018-09-25T16:39:40.357Z,10.20
2018-09-25T16:42:13.965Z,10.10
2018-09-25T16:44:47.583Z,10.10
2018-09-25T16:47:21.353Z,10.00
2018-09-25T16:49:55.720Z,9.90
2018-09-25T16:52:29.470Z,9.70
2018-09-25T16:55:03.152Z,9.70
2018-09-25T16:57:36.955Z,9.70
2018-09-25T17:00:11.250Z,9.70
2018-09-25T17:02:44.872Z,9.70
2018-09-25T17:05:18.573Z,9.60
2018-09-25T17:07:52.222Z,9.60
2018-09-25T17:10:26.345Z,9.50
2018-09-25T17:12:59.844Z,9.40
2018-09-25T17:15:33.616Z,9.10
2018-09-25T17:18:07.214Z,9.00
2018-09-25T17:20:41.132Z,9.00
2018-09-25T17:23:14.856Z,9.00
2018-09-25T17:25:48.454Z,8.90
2018-09-25T17:28:22.136Z,8.80
2018-09-25T17:30:56.617Z,8.70
2018-09-25T17:33:30.144Z,8.60
2018-09-25T17:39:56.257Z,8.60
2018-09-25T17:45:23.990Z,8.60
2018-09-25T17:47:59.651Z,8.50
2018-09-25T17:50:33.352Z,8.40
2018-09-25T17:53:07.320Z,8.40
2018-09-25T17:55:40.937Z,8.40
2018-09-25T17:58:14.662Z,8.20
2018-09-25T18:00:48.389Z,8.10
2018-09-25T18:03:22.724Z,8.00
2018-09-25T18:05:56.444Z,8.00
2018-09-25T18:08:30.134Z,7.90
2018-09-25T18:11:03.795Z,7.80
2018-09-25T18:13:37.932Z,7.80
2018-09-25T18:16:11.632Z,7.70
2018-09-25T18:18:45.361Z,7.60
2018-09-25T18:21:19.055Z,7.60
2018-09-25T18:23:53.517Z,7.50
2018-09-25T18:26:27.204Z,7.50
2018-09-25T18:29:00.788Z,7.50
2018-09-25T18:31:34.512Z,7.40
2018-09-25T18:34:09.142Z,7.40
2018-09-25T18:36:42.866Z,7.30
2018-09-25T18:39:16.224Z,7.30
2018-09-25T18:41:49.660Z,7.20
2018-09-25T18:44:24.246Z,7.20
2018-09-25T18:46:57.949Z,7.10
2018-09-25T18:49:31.643Z,7.10
2018-09-25T18:52:05.235Z,7.10
2018-09-25T18:54:39.131Z,7.10
2018-09-25T18:57:12.787Z,7.00
2018-09-25T18:59:46.500Z,7.10
2018-09-25T19:02:20.013Z,7.10
2018-09-25T19:04:54.561Z,7.00
2018-09-25T19:07:28.309Z,7.00
2018-09-25T19:10:02.037Z,6.90
2018-09-25T19:12:35.740Z,6.90
2018-09-25T19:15:10.112Z,6.80
2018-09-25T19:20:17.337Z,6.70
2018-09-25T19:22:51.045Z,6.70
2018-09-25T19:29:22.808Z,6.60
2018-09-25T19:31:56.517Z,6.50
2018-09-25T19:34:29.977Z,6.50
2018-09-25T19:37:03.701Z,6.40
2018-09-25T19:39:37.427Z,6.40
2018-09-25T19:42:11.132Z,6.40
2018-09-25T19:44:45.094Z,6.40
2018-09-25T19:47:18.389Z,6.30
2018-09-25T19:49:52.107Z,6.30
2018-09-25T19:52:25.574Z,6.20
2018-09-25T19:54:59.348Z,6.20
2018-09-25T19:57:33.042Z,6.10
2018-09-25T20:00:06.736Z,6.20
2018-09-25T20:02:40.272Z,6.10
2018-09-25T20:05:14.608Z,6.10
2018-09-25T20:07:48.461Z,6.00
2018-09-25T20:10:22.226Z,5.90
2018-09-25T20:12:55.944Z,5.90
2018-09-25T20:15:30.601Z,5.90
2018-09-25T20:18:04.266Z,5.80
2018-09-25T20:20:38.051Z,5.80
2018-09-25T20:23:11.647Z,5.80
2018-09-25T20:25:45.810Z,5.80
2018-09-25T20:28:19.239Z,5.90
2018-09-25T20:30:52.807Z,5.70
2018-09-25T20:33:26.348Z,5.80
2018-09-25T20:36:00.254Z,5.80
2018-09-25T20:38:33.936Z,5.70
2018-09-25T20:41:07.652Z,5.70
2018-09-25T20:43:41.305Z,5.70
2018-09-25T20:46:15.652Z,5.70
2018-09-25T20:48:49.389Z,5.70
2018-09-25T23:12:14.004Z,3.90
2018-09-25T23:14:47.581Z,4.00
2018-09-25T23:17:21.260Z,4.00
2018-09-25T23:19:54.788Z,4.00
2018-09-25T23:22:28.218Z,4.10
2018-09-25T23:25:01.790Z,4.10
2018-09-25T23:27:35.324Z,4.00
2018-09-25T23:30:09.192Z,4.10
2018-09-25T23:32:42.884Z,4.00
2018-09-25T23:35:16.328Z,4.00
2018-09-25T23:37:49.896Z,4.10
2018-09-25T23:40:24.432Z,4.00
2018-09-25T23:42:57.949Z,4.10
2018-09-25T23:45:34.357Z,4.00
2018-09-25T23:48:09.687Z,4.00
2018-09-25T23:50:47.485Z,3.90
2018-09-25T23:53:17.925Z,3.80
2018-09-25T23:55:51.522Z,3.80
2018-09-25T23:58:26.968Z,3.80
